Time;durP1;ratioP1;P1;durP2;ratioP2;P2;SDS_P1;SDS_P2;PMS_P1;PMS_P2;Temp;Humidity;BMP_temperature;BMP_pressure;BME280_temperature;BME280_humidity;BME280_pressure;Samples;Min_cycle;Max_cycle;Signal;HPM_P1;HPM_P2
2021/01/23 00:02:01;;;;;;;12.80;6.50;;;3.80;95.40;;;;;;5014861;28;20022;-90
2021/01/23 00:04:27;;;;;;;14.18;6.82;;;3.80;95.60;;;;;;5008414;28;20025;-91
2021/01/23 00:06:52;;;;;;;13.73;7.50;;;3.80;95.50;;;;;;5015729;28;20036;-91
2021/01/23 00:09:20;;;;;;;14.35;6.85;;;3.70;95.40;;;;;;5002998;28;20034;-90
2021/01/23 00:11:46;;;;;;;13.07;6.57;;;3.60;95.40;;;;;;5012464;28;20039;-89
2021/01/23 00:14:12;;;;;;;11.15;6.65;;;3.60;95.60;;;;;;5001149;28;20489;-89
2021/01/23 00:16:37;;;;;;;11.13;6.45;;;3.60;95.60;;;;;;5009917;28;20033;-89
2021/01/23 00:19:03;;;;;;;10.35;5.72;;;3.60;95.70;;;;;;4999163;28;20112;-89
2021/01/23 00:21:29;;;;;;;14.77;6.13;;;3.70;95.80;;;;;;5032689;28;20025;-88
2021/01/23 00:23:54;;;;;;;10.27;6.05;;;3.70;95.80;;;;;;5018977;28;20091;-89
2021/01/23 00:26:20;;;;;;;11.77;5.72;;;3.70;95.80;;;;;;5019598;28;20030;-89
2021/01/23 00:28:46;;;;;;;12.13;6.00;;;3.70;95.80;;;;;;5019324;28;20686;-89
2021/01/23 00:31:16;;;;;;;10.15;5.93;;;3.60;95.80;;;;;;5004486;28;20433;-88
2021/01/23 00:33:41;;;;;;;10.03;6.03;;;3.60;96.10;;;;;;5014535;28;20458;-90
2021/01/23 00:36:08;;;;;;;10.95;6.30;;;3.70;95.90;;;;;;5019588;28;20330;-90
2021/01/23 00:38:33;;;;;;;11.90;5.75;;;3.60;95.90;;;;;;5019246;28;20022;-90
2021/01/23 00:40:59;;;;;;;14.18;6.30;;;3.60;95.80;;;;;;5036667;28;20030;-89
2021/01/23 00:43:25;;;;;;;14.57;7.30;;;3.60;95.80;;;;;;5036517;28;20021;-90
2021/01/23 00:45:50;;;;;;;15.05;7.30;;;3.60;95.50;;;;;;5018651;28;20440;-90
2021/01/23 00:48:18;;;;;;;14.52;7.20;;;3.50;95.20;;;;;;4999329;28;20476;-89
2021/01/23 00:50:44;;;;;;;15.75;7.22;;;3.40;95.10;;;;;;5018739;28;20038;-91
2021/01/23 00:53:09;;;;;;;15.52;8.48;;;3.40;95.00;;;;;;5002536;28;20041;-90
2021/01/23 00:55:35;;;;;;;16.45;7.47;;;3.30;94.40;;;;;;5002542;28;20583;-91
2021/01/23 00:58:03;;;;;;;15.50;7.35;;;3.30;94.80;;;;;;5018676;28;20091;-91
2021/01/23 01:00:29;;;;;;;21.02;7.65;;;3.20;94.80;;;;;;5018563;28;20045;-91
2021/01/23 01:02:54;;;;;;;13.68;7.80;;;3.20;94.50;;;;;;5019033;28;20056;-89
2021/01/23 01:05:20;;;;;;;13.45;7.47;;;3.10;94.60;;;;;;5018307;28;20053;-89
2021/01/23 01:07:46;;;;;;;15.88;7.72;;;3.10;94.60;;;;;;5036468;28;20143;-89
2021/01/23 01:10:12;;;;;;;14.75;6.68;;;3.10;94.70;;;;;;5018712;28;20041;-90
2021/01/23 01:12:37;;;;;;;17.65;8.05;;;3.10;94.90;;;;;;5024491;28;20033;-89
2021/01/23 01:15:04;;;;;;;17.25;7.65;;;3.00;94.80;;;;;;5018226;28;20026;-89
2021/01/23 01:17:30;;;;;;;18.90;8.18;;;3.00;94.90;;;;;;5017788;28;20049;-89
2021/01/23 01:19:55;;;;;;;16.33;8.15;;;3.00;95.00;;;;;;5018156;28;20426;-89
2021/01/23 01:22:21;;;;;;;21.38;8.57;;;3.00;95.10;;;;;;5001473;28;20064;-89
2021/01/23 01:24:47;;;;;;;19.27;8.95;;;3.00;95.10;;;;;;5001945;28;20536;-89
2021/01/23 01:27:13;;;;;;;18.02;9.20;;;2.90;95.30;;;;;;5018557;28;20025;-90
2021/01/23 01:29:39;;;;;;;19.67;10.60;;;2.90;95.40;;;;;;5035576;28;20017;-88
2021/01/23 01:32:06;;;;;;;17.17;9.57;;;2.90;95.40;;;;;;5003088;28;20482;-90
2021/01/23 01:34:31;;;;;;;17.08;8.65;;;2.90;95.60;;;;;;5012157;28;20055;-90
2021/01/23 01:36:57;;;;;;;19.40;8.57;;;2.90;95.60;;;;;;5035096;28;20029;-89
2021/01/23 01:39:23;;;;;;;17.45;9.68;;;2.90;95.60;;;;;;5017763;28;20025;-89
2021/01/23 01:41:48;;;;;;;17.27;10.38;;;2.90;95.60;;;;;;5034646;28;20037;-89
2021/01/23 01:44:14;;;;;;;22.80;10.65;;;2.90;95.50;;;;;;5034949;28;20060;-90
2021/01/23 01:46:40;;;;;;;18.75;10.10;;;2.90;95.50;;;;;;5034330;28;20024;-89
2021/01/23 01:49:08;;;;;;;21.80;11.20;;;2.90;95.60;;;;;;5026854;28;20038;-89
2021/01/23 01:51:37;;;;;;;25.38;12.63;;;2.90;95.80;;;;;;5029804;28;20377;-89
2021/01/23 01:54:03;;;;;;;16.02;10.35;;;2.90;96.00;;;;;;5036014;28;20025;-89
2021/01/23 01:56:28;;;;;;;21.60;11.32;;;2.90;96.10;;;;;;5034315;28;20018;-89
2021/01/23 01:58:54;;;;;;;17.33;10.65;;;2.90;96.20;;;;;;5013824;28;20398;-87
2021/01/23 02:01:20;;;;;;;21.15;11.18;;;2.80;96.20;;;;;;5008061;28;20042;-89
2021/01/23 02:04:18;;;;;;;17.10;9.50;;;2.90;96.50;;;;;;5034061;28;20038;-88
2021/01/23 02:07:05;;;;;;;18.52;11.23;;;2.90;96.20;;;;;;5003017;28;20548;-89
2021/01/23 02:09:57;;;;;;;21.02;11.95;;;2.90;96.20;;;;;;5021700;28;20037;-90
2021/01/23 02:12:56;;;;;;;18.63;10.25;;;2.90;96.20;;;;;;5033938;28;20092;-89
2021/01/23 02:15:26;;;;;;;19.15;10.45;;;2.90;96.20;;;;;;5034183;28;20056;-89
2021/01/23 02:18:09;;;;;;;19.77;10.90;;;2.80;96.10;;;;;;5020441;28;20120;-89
2021/01/23 02:20:59;;;;;;;17.20;10.68;;;2.90;96.10;;;;;;5033798;28;20033;-89
2021/01/23 02:23:32;;;;;;;21.55;10.60;;;2.90;96.20;;;;;;5034256;28;20029;-91
2021/01/23 02:26:18;;;;;;;18.23;11.45;;;2.80;96.10;;;;;;5002526;28;20033;-89
2021/01/23 02:29:03;;;;;;;21.73;11.05;;;2.90;96.10;;;;;;5023373;28;20494;-90
2021/01/23 02:31:33;;;;;;;19.90;11.55;;;2.90;96.20;;;;;;5033213;28;20520;-90
2021/01/23 02:34:01;;;;;;;22.33;12.45;;;2.90;96.10;;;;;;5017021;28;20108;-90
2021/01/23 02:36:28;;;;;;;22.08;10.23;;;2.80;96.20;;;;;;5011360;28;20030;-90
2021/01/23 02:38:55;;;;;;;20.40;11.48;;;2.90;96.20;;;;;;5007453;28;20438;-90
2021/01/23 02:41:21;;;;;;;20.65;11.60;;;2.90;96.30;;;;;;5016175;28;20065;-90
2021/01/23 02:43:47;;;;;;;19.58;11.63;;;2.90;96.30;;;;;;5016047;28;20022;-90
2021/01/23 02:46:17;;;;;;;19.90;11.38;;;2.90;96.30;;;;;;4987937;28;20376;-91
2021/01/23 02:48:44;;;;;;;22.57;11.40;;;2.90;96.40;;;;;;5003726;28;20030;-90
2021/01/23 02:51:22;;;;;;;21.73;12.68;;;2.90;96.40;;;;;;5025175;28;20025;-90
2021/01/23 02:53:52;;;;;;;24.35;12.95;;;2.90;96.40;;;;;;5005324;28;20083;-90
2021/01/23 02:56:24;;;;;;;26.10;12.15;;;2.90;96.50;;;;;;5003417;28;20030;-90
2021/01/23 02:58:52;;;;;;;24.98;11.50;;;2.90;96.60;;;;;;5020456;28;20017;-90
2021/01/23 03:01:21;;;;;;;25.00;12.10;;;2.80;96.70;;;;;;5032463;28;20030;-90
2021/01/23 03:03:52;;;;;;;20.98;11.68;;;2.80;96.80;;;;;;5015351;28;20068;-90
2021/01/23 03:06:18;;;;;;;21.33;11.85;;;2.80;96.80;;;;;;4997190;28;20770;-90
2021/01/23 03:08:44;;;;;;;20.00;10.52;;;2.80;96.90;;;;;;5000423;28;20030;-90
2021/01/23 03:11:10;;;;;;;19.48;10.85;;;2.80;97.00;;;;;;4998707;28;20025;-90
2021/01/23 03:13:35;;;;;;;26.40;11.95;;;2.70;97.10;;;;;;5013205;28;20037;-90
2021/01/23 03:16:03;;;;;;;17.90;11.48;;;2.80;97.10;;;;;;5016714;28;20048;-90
2021/01/23 03:18:29;;;;;;;18.95;11.00;;;2.80;97.10;;;;;;5016172;28;20060;-89
2021/01/23 03:20:55;;;;;;;17.33;10.75;;;2.80;97.10;;;;;;5016436;28;20053;-90
2021/01/23 03:23:20;;;;;;;17.98;10.43;;;2.90;97.20;;;;;;5001265;28;20403;-90
2021/01/23 03:25:46;;;;;;;20.63;11.20;;;2.90;97.20;;;;;;4978626;28;20022;-89
2021/01/23 03:28:12;;;;;;;18.35;10.30;;;2.90;97.20;;;;;;5023467;28;20029;-89
2021/01/23 03:30:38;;;;;;;20.52;10.52;;;2.90;97.20;;;;;;5004784;28;20083;-89
2021/01/23 03:33:06;;;;;;;16.73;10.02;;;2.90;97.30;;;;;;5029932;28;20041;-89
2021/01/23 03:35:31;;;;;;;18.45;10.55;;;2.80;97.50;;;;;;5035570;28;20077;-89
2021/01/23 03:37:57;;;;;;;20.55;11.30;;;2.80;97.50;;;;;;5053541;28;20439;-90
2021/01/23 03:40:23;;;;;;;19.17;10.35;;;3.00;97.70;;;;;;5002441;28;20516;-89
2021/01/23 03:42:48;;;;;;;18.05;10.93;;;2.90;97.70;;;;;;5002256;28;20021;-90
2021/01/23 03:45:14;;;;;;;17.08;10.32;;;2.90;97.70;;;;;;5002654;28;20035;-90
2021/01/23 03:47:40;;;;;;;20.30;10.55;;;3.00;97.80;;;;;;5004971;28;20045;-90
2021/01/23 03:50:08;;;;;;;20.17;10.38;;;3.00;97.80;;;;;;5002719;28;20142;-89
2021/01/23 03:52:34;;;;;;;19.58;10.07;;;3.00;97.80;;;;;;5018879;28;20025;-90
2021/01/23 03:54:59;;;;;;;22.88;10.38;;;3.00;97.80;;;;;;5002938;28;20036;-90
2021/01/23 03:57:25;;;;;;;20.17;11.50;;;3.00;97.90;;;;;;5035529;28;20389;-90
2021/01/23 03:59:51;;;;;;;17.20;10.32;;;3.00;97.90;;;;;;5039827;28;20112;-90
2021/01/23 04:02:16;;;;;;;19.00;10.85;;;3.10;97.90;;;;;;5006628;28;20377;-90
2021/01/23 04:04:42;;;;;;;18.08;11.00;;;3.10;97.90;;;;;;5001637;28;20795;-90
2021/01/23 04:07:08;;;;;;;22.70;11.95;;;3.10;97.90;;;;;;5037363;28;20048;-90
2021/01/23 04:09:33;;;;;;;19.20;10.82;;;3.20;97.90;;;;;;4989428;28;20047;-90
2021/01/23 04:11:59;;;;;;;21.73;10.00;;;3.20;97.90;;;;;;5039385;28;20045;-90
2021/01/23 04:14:25;;;;;;;21.42;11.45;;;3.20;98.00;;;;;;5038761;28;20032;-89
2021/01/23 04:16:50;;;;;;;19.13;10.80;;;3.20;98.00;;;;;;5019596;28;20017;-90
2021/01/23 04:19:17;;;;;;;23.83;10.48;;;3.20;98.00;;;;;;5003346;28;20041;-90
2021/01/23 04:21:43;;;;;;;17.70;10.52;;;3.30;98.00;;;;;;5023617;28;20017;-90
2021/01/23 04:24:10;;;;;;;20.35;9.57;;;3.30;98.00;;;;;;5045829;28;20030;-91
2021/01/23 04:26:36;;;;;;;16.90;9.30;;;3.30;97.90;;;;;;5019276;28;20117;-90
2021/01/23 04:29:03;;;;;;;16.45;10.10;;;3.30;97.90;;;;;;5027600;28;20027;-90
2021/01/23 04:31:29;;;;;;;19.38;10.18;;;3.30;97.80;;;;;;5007413;28;20572;-90
2021/01/23 04:33:54;;;;;;;20.15;10.80;;;3.40;97.80;;;;;;5005343;28;20071;-91
2021/01/23 04:36:20;;;;;;;13.55;9.88;;;3.40;97.80;;;;;;5036222;28;20124;-89
2021/01/23 04:38:46;;;;;;;16.08;9.88;;;3.40;97.80;;;;;;5018806;28;20021;-89
2021/01/23 04:41:11;;;;;;;18.17;10.55;;;3.40;97.90;;;;;;5019306;28;20033;-90
2021/01/23 04:43:37;;;;;;;16.27;9.93;;;3.40;97.90;;;;;;5018959;28;20033;-90
2021/01/23 04:46:03;;;;;;;20.00;10.57;;;3.40;97.90;;;;;;5018991;28;20048;-91
2021/01/23 04:48:29;;;;;;;17.23;10.48;;;3.40;97.90;;;;;;5029299;28;20052;-92
2021/01/23 04:50:57;;;;;;;15.60;9.77;;;3.40;97.90;;;;;;5002029;28;20034;-91
2021/01/23 04:53:23;;;;;;;19.05;10.70;;;3.40;98.00;;;;;;5028686;28;20026;-91
2021/01/23 04:55:49;;;;;;;19.02;9.80;;;3.50;98.20;;;;;;5018942;28;20033;-90
2021/01/23 04:58:15;;;;;;;16.85;9.50;;;3.50;97.90;;;;;;4986538;28;20025;-90
2021/01/23 05:00:40;;;;;;;16.55;10.40;;;3.50;97.90;;;;;;5018582;28;20064;-92
2021/01/23 05:03:07;;;;;;;12.93;9.32;;;3.50;97.80;;;;;;5018280;28;20555;-89
2021/01/23 05:05:34;;;;;;;19.48;10.65;;;3.50;97.80;;;;;;5018097;28;20064;-91
2021/01/23 05:08:11;;;;;;;16.13;9.80;;;3.50;97.80;;;;;;5017767;28;20574;-90
2021/01/23 05:10:37;;;;;;;24.33;11.35;;;3.60;97.80;;;;;;5018597;28;20355;-90
2021/01/23 05:13:15;;;;;;;16.77;10.23;;;3.60;97.70;;;;;;5018087;28;20033;-90
2021/01/23 05:15:45;;;;;;;19.35;10.30;;;3.60;97.80;;;;;;5009422;28;20026;-90
2021/01/23 05:18:14;;;;;;;19.27;9.88;;;3.60;97.70;;;;;;5005127;28;20021;-90
2021/01/23 05:20:47;;;;;;;20.48;10.68;;;3.60;97.60;;;;;;5018438;28;20100;-90
2021/01/23 05:23:14;;;;;;;20.80;10.85;;;3.60;97.50;;;;;;5018525;28;20459;-90
2021/01/23 05:25:42;;;;;;;18.33;9.77;;;3.60;97.50;;;;;;5018331;28;20147;-90
2021/01/23 05:28:13;;;;;;;19.50;10.30;;;3.60;97.60;;;;;;5001916;28;20052;-90
2021/01/23 05:30:52;;;;;;;20.13;11.20;;;3.60;97.60;;;;;;5018348;28;20121;-90
2021/01/23 05:33:21;;;;;;;17.35;10.45;;;3.60;97.70;;;;;;5017431;28;20500;-90
2021/01/23 05:36:06;;;;;;;18.33;11.18;;;3.60;97.60;;;;;;5017513;28;20029;-90
2021/01/23 05:38:36;;;;;;;18.27;10.90;;;3.60;97.50;;;;;;5018173;28;20021;-91
2021/01/23 05:41:11;;;;;;;20.75;12.02;;;3.60;97.50;;;;;;5035796;28;20201;-90
2021/01/23 05:43:48;;;;;;;23.42;12.40;;;3.50;97.70;;;;;;5035896;28;20116;-90
2021/01/23 05:46:32;;;;;;;18.90;11.60;;;3.60;97.80;;;;;;5026024;28;20022;-90
2021/01/23 05:48:58;;;;;;;24.95;12.57;;;3.60;97.80;;;;;;4999600;28;20083;-90
2021/01/23 05:51:25;;;;;;;18.40;10.60;;;3.60;97.80;;;;;;5017737;28;20043;-90
2021/01/23 05:53:51;;;;;;;19.08;11.07;;;3.60;97.80;;;;;;5012599;28;20030;-90
2021/01/23 05:56:17;;;;;;;18.95;11.30;;;3.60;97.70;;;;;;5002909;28;20022;-89
2021/01/23 05:58:44;;;;;;;20.52;11.50;;;3.60;97.70;;;;;;5012245;28;20025;-89
2021/01/23 06:01:10;;;;;;;17.42;11.20;;;3.60;97.70;;;;;;5017064;28;20025;-90
2021/01/23 06:03:47;;;;;;;17.70;10.88;;;3.60;97.70;;;;;;5017334;28;20029;-89
2021/01/23 06:06:13;;;;;;;19.88;12.50;;;3.60;97.70;;;;;;5017647;28;20037;-90
2021/01/23 06:08:49;;;;;;;19.95;11.23;;;3.70;97.80;;;;;;5017045;28;20022;-89
2021/01/23 06:11:18;;;;;;;19.05;11.35;;;3.70;97.80;;;;;;5017624;28;20060;-90
2021/01/23 06:13:48;;;;;;;21.60;11.48;;;3.60;97.70;;;;;;5017514;28;20121;-90
2021/01/23 06:16:32;;;;;;;24.35;12.23;;;3.60;97.60;;;;;;5017334;28;20053;-90
2021/01/23 06:19:20;;;;;;;20.30;11.60;;;3.60;97.70;;;;;;5017320;28;20025;-90
2021/01/23 06:21:46;;;;;;;21.83;12.55;;;3.50;97.70;;;;;;5033401;28;20029;-89
2021/01/23 06:24:41;;;;;;;17.92;12.02;;;3.50;97.70;;;;;;5018692;28;20040;-90
2021/01/23 06:27:07;;;;;;;24.13;12.77;;;3.50;97.80;;;;;;5010548;28;20057;-90
2021/01/23 06:29:43;;;;;;;21.25;12.23;;;3.50;97.90;;;;;;5008906;28;20049;-89
2021/01/23 06:32:12;;;;;;;28.95;13.48;;;3.50;97.90;;;;;;5014275;28;20337;-89
2021/01/23 06:34:52;;;;;;;18.20;11.77;;;3.50;98.00;;;;;;5036862;28;20026;-90
2021/01/23 06:37:33;;;;;;;24.27;12.83;;;3.50;98.00;;;;;;5042801;28;20026;-90
2021/01/23 06:40:00;;;;;;;21.95;12.60;;;3.50;98.00;;;;;;5034016;28;20363;-90
2021/01/23 06:42:26;;;;;;;24.60;13.65;;;3.50;98.10;;;;;;5001186;28;20087;-90
2021/01/23 06:44:52;;;;;;;20.38;12.15;;;3.60;98.20;;;;;;5023568;28;20037;-92
2021/01/23 06:47:18;;;;;;;26.02;13.48;;;3.60;98.20;;;;;;5012881;28;20025;-90
2021/01/23 06:49:44;;;;;;;20.42;12.65;;;3.60;98.20;;;;;;5017048;28;20029;-90
2021/01/23 06:52:10;;;;;;;24.65;13.73;;;3.60;98.20;;;;;;5034192;28;20439;-89
2021/01/23 06:54:37;;;;;;;23.35;13.40;;;3.60;98.20;;;;;;5033494;28;20112;-90
2021/01/23 06:57:05;;;;;;;26.60;14.10;;;3.70;98.20;;;;;;5032394;28;20026;-90
2021/01/23 06:59:35;;;;;;;21.33;13.27;;;3.70;98.20;;;;;;5032655;28;20013;-91
2021/01/23 07:02:09;;;;;;;23.17;12.95;;;3.70;98.20;;;;;;5015386;28;20053;-89
2021/01/23 07:04:47;;;;;;;19.48;12.35;;;3.70;98.40;;;;;;5033369;28;20026;-90
2021/01/23 07:07:14;;;;;;;21.05;12.57;;;3.70;98.20;;;;;;5020694;28;20097;-89
2021/01/23 07:09:58;;;;;;;23.13;11.98;;;3.70;98.20;;;;;;5030293;28;20028;-89
2021/01/23 07:12:35;;;;;;;20.95;12.95;;;3.70;98.10;;;;;;5015561;28;20183;-90
2021/01/23 07:15:30;;;;;;;21.88;13.18;;;3.70;98.10;;;;;;5026844;28;20049;-89
2021/01/23 07:17:55;;;;;;;20.33;12.15;;;3.70;98.10;;;;;;5010790;28;20026;-91
2021/01/23 07:20:21;;;;;;;22.45;13.63;;;3.80;98.00;;;;;;5007076;28;20091;-90
2021/01/23 07:22:47;;;;;;;23.63;12.88;;;3.80;97.90;;;;;;5002622;28;20034;-90
2021/01/23 07:25:14;;;;;;;26.33;13.25;;;3.70;97.80;;;;;;5047409;28;20032;-89
2021/01/23 07:27:42;;;;;;;24.70;12.75;;;3.80;97.80;;;;;;5015535;28;20500;-89
2021/01/23 07:30:12;;;;;;;20.38;11.95;;;3.80;97.80;;;;;;5032035;28;20030;-89
2021/01/23 07:32:43;;;;;;;22.70;12.38;;;3.80;97.70;;;;;;5032286;28;20140;-88
2021/01/23 07:35:09;;;;;;;21.63;12.38;;;3.80;97.60;;;;;;5016656;28;20102;-89
2021/01/23 07:37:42;;;;;;;22.55;12.48;;;3.80;97.60;;;;;;5032333;28;20029;-89
2021/01/23 07:40:10;;;;;;;20.58;12.55;;;3.80;97.50;;;;;;5032389;28;20029;-89
2021/01/23 07:42:37;;;;;;;23.85;13.32;;;3.90;97.60;;;;;;5016036;28;20029;-88
2021/01/23 07:45:09;;;;;;;22.77;13.32;;;3.90;97.60;;;;;;5033652;28;20021;-89
2021/01/23 07:47:36;;;;;;;22.33;12.52;;;3.90;97.50;;;;;;4999979;28;20029;-88
2021/01/23 07:50:13;;;;;;;21.67;13.05;;;3.90;97.50;;;;;;5031615;28;20045;-89
2021/01/23 07:52:40;;;;;;;24.27;11.93;;;3.90;97.40;;;;;;5031622;28;20025;-89
2021/01/23 07:55:07;;;;;;;21.45;12.10;;;3.90;97.40;;;;;;5031851;28;20018;-91
2021/01/23 07:57:33;;;;;;;21.77;11.27;;;3.90;97.40;;;;;;5033371;28;20100;-90
2021/01/23 07:59:59;;;;;;;19.98;11.50;;;3.90;97.30;;;;;;5016097;28;20060;-90
2021/01/23 08:02:26;;;;;;;19.77;11.02;;;3.90;97.10;;;;;;5032029;28;20049;-89
2021/01/23 08:04:53;;;;;;;23.05;11.63;;;3.90;97.10;;;;;;5020693;28;20087;-90
2021/01/23 08:07:26;;;;;;;16.17;10.80;;;3.90;97.10;;;;;;5029955;28;20036;-90
2021/01/23 08:10:07;;;;;;;19.02;11.68;;;3.90;97.20;;;;;;5032180;28;20045;-89
2021/01/23 08:12:34;;;;;;;18.00;10.45;;;3.90;97.20;;;;;;5032087;28;20022;-89
2021/01/23 08:14:59;;;;;;;19.33;11.38;;;3.90;97.30;;;;;;5032225;28;20029;-88
2021/01/23 08:17:39;;;;;;;19.55;11.43;;;4.00;97.40;;;;;;5034989;28;20385;-90
2021/01/23 08:20:10;;;;;;;22.25;11.75;;;3.90;97.40;;;;;;5040814;28;20026;-89
2021/01/23 08:22:58;;;;;;;17.87;11.93;;;4.00;97.50;;;;;;5032466;28;20028;-89
2021/01/23 08:25:28;;;;;;;18.65;11.60;;;4.00;97.60;;;;;;5031558;28;20268;-89
2021/01/23 08:27:58;;;;;;;20.35;10.75;;;4.00;97.60;;;;;;5026458;28;20025;-90
2021/01/23 08:30:25;;;;;;;17.55;10.48;;;4.10;97.60;;;;;;5023455;28;20041;-90
2021/01/23 08:32:54;;;;;;;20.00;10.48;;;4.10;97.60;;;;;;5006321;28;20073;-90
2021/01/23 08:35:21;;;;;;;17.10;10.23;;;4.10;97.50;;;;;;5014848;28;20104;-89
2021/01/23 08:37:47;;;;;;;19.90;10.15;;;4.10;97.50;;;;;;5014861;28;20033;-90
2021/01/23 08:40:19;;;;;;;16.20;9.02;;;4.20;97.40;;;;;;5014186;28;20549;-89
2021/01/23 08:42:44;;;;;;;;;;;4.20;97.30;;;;;;5031659;28;20017;-89
2021/01/23 08:45:11;;;;;;;17.70;10.20;;;4.20;97.20;;;;;;5017703;28;19905;-90
2021/01/23 08:47:36;;;;;;;21.88;10.10;;;4.20;97.20;;;;;;5017947;28;20026;-90
2021/01/23 08:50:02;;;;;;;22.10;9.93;;;4.20;97.20;;;;;;5017995;28;20482;-88
2021/01/23 08:52:28;;;;;;;18.98;10.82;;;4.20;97.20;;;;;;5019520;28;20036;-87
2021/01/23 08:54:54;;;;;;;16.23;9.32;;;4.30;97.20;;;;;;5019428;28;20030;-90
2021/01/23 08:57:19;;;;;;;18.83;10.60;;;4.30;97.20;;;;;;5029935;28;20036;-90
2021/01/23 08:59:45;;;;;;;16.83;8.88;;;4.30;97.00;;;;;;5018169;28;20033;-88
2021/01/23 09:02:14;;;;;;;14.60;8.65;;;4.30;96.80;;;;;;5003925;28;20041;-88
2021/01/23 09:04:41;;;;;;;17.13;8.80;;;4.40;96.80;;;;;;5002781;28;20030;-88
2021/01/23 09:07:08;;;;;;;20.00;9.25;;;4.40;96.80;;;;;;5018088;28;20014;-89
2021/01/23 09:09:34;;;;;;;18.20;9.93;;;4.40;96.90;;;;;;5018292;28;20025;-90
2021/01/23 09:12:02;;;;;;;18.15;9.10;;;4.40;96.90;;;;;;5017605;28;20080;-89
2021/01/23 09:14:28;;;;;;;15.57;8.55;;;4.40;96.90;;;;;;5017259;28;20108;-91
2021/01/23 09:16:54;;;;;;;13.75;8.70;;;4.40;96.80;;;;;;5016970;28;20548;-90
2021/01/23 09:19:21;;;;;;;15.02;8.60;;;4.40;96.60;;;;;;5017345;28;20045;-90
2021/01/23 09:21:47;;;;;;;17.27;8.60;;;4.40;96.60;;;;;;5034865;28;20029;-90
2021/01/23 09:24:15;;;;;;;17.33;9.48;;;4.40;96.50;;;;;;5017778;28;20032;-89
2021/01/23 09:26:44;;;;;;;13.00;7.70;;;4.40;96.60;;;;;;5035744;28;20523;-89
2021/01/23 09:29:11;;;;;;;17.02;8.57;;;4.40;96.80;;;;;;5017413;28;20355;-89
2021/01/23 09:31:37;;;;;;;11.98;7.65;;;4.40;96.80;;;;;;5018732;28;20053;-87
2021/01/23 09:34:03;;;;;;;14.30;8.18;;;4.50;96.60;;;;;;5013026;28;20034;-85
2021/01/23 09:36:29;;;;;;;18.38;8.00;;;4.50;96.40;;;;;;5005293;28;20044;-88
2021/01/23 09:38:55;;;;;;;18.20;8.00;;;4.50;96.40;;;;;;5016335;28;20021;-88
2021/01/23 09:41:21;;;;;;;12.80;8.10;;;4.60;96.50;;;;;;5015552;28;20079;-88
2021/01/23 09:43:47;;;;;;;13.50;7.97;;;4.70;96.50;;;;;;5013429;28;20422;-89
2021/01/23 09:46:13;;;;;;;12.50;8.15;;;4.70;96.30;;;;;;4996798;28;20042;-88
2021/01/23 09:48:38;;;;;;;15.15;7.57;;;4.80;96.30;;;;;;5016075;28;20029;-89
2021/01/23 09:51:04;;;;;;;16.70;7.53;;;4.90;96.30;;;;;;5015773;28;20042;-89
2021/01/23 09:53:30;;;;;;;13.95;7.70;;;4.90;96.10;;;;;;5011498;28;20033;-87
2021/01/23 09:55:56;;;;;;;12.20;6.80;;;5.00;96.00;;;;;;5034429;28;20045;-88
2021/01/23 09:58:21;;;;;;;16.23;6.10;;;5.10;95.70;;;;;;4982696;28;20050;-81
2021/01/23 10:00:47;;;;;;;16.13;6.88;;;5.20;95.40;;;;;;5016583;28;20033;-89
2021/01/23 10:03:16;;;;;;;14.43;6.53;;;5.20;95.20;;;;;;5015261;28;20040;-89
2021/01/23 10:05:43;;;;;;;11.52;5.30;;;5.30;95.30;;;;;;4995026;28;20044;-89
2021/01/23 10:08:09;;;;;;;10.77;5.70;;;5.40;94.70;;;;;;4999762;28;20037;-88
2021/01/23 10:10:34;;;;;;;12.85;5.93;;;5.40;94.60;;;;;;5032656;28;20034;-85
2021/01/23 10:13:01;;;;;;;13.93;6.38;;;5.50;94.20;;;;;;4999934;28;20037;-88
2021/01/23 10:15:26;;;;;;;11.13;5.68;;;5.50;94.60;;;;;;5024549;28;20052;-88
2021/01/23 10:17:52;;;;;;;12.32;5.60;;;5.60;94.70;;;;;;5033700;28;20025;-87
2021/01/23 10:20:18;;;;;;;13.77;5.40;;;5.70;93.80;;;;;;5039444;28;20060;-88
2021/01/23 10:22:43;;;;;;;9.68;5.30;;;5.70;93.50;;;;;;4986559;28;20101;-89
2021/01/23 10:25:09;;;;;;;10.48;5.43;;;5.70;93.90;;;;;;5001560;28;20017;-88
2021/01/23 10:27:35;;;;;;;10.60;5.43;;;5.80;93.90;;;;;;4999850;28;20699;-88
2021/01/23 10:30:02;;;;;;;11.35;5.47;;;5.90;93.70;;;;;;4999603;28;20064;-87
2021/01/23 10:32:28;;;;;;;11.30;5.80;;;5.90;93.60;;;;;;5034182;28;20046;-89
2021/01/23 10:34:54;;;;;;;12.60;5.28;;;6.00;93.60;;;;;;5016167;28;20026;-88
2021/01/23 10:37:19;;;;;;;11.65;5.18;;;6.00;93.40;;;;;;5013022;28;20030;-88
2021/01/23 10:39:45;;;;;;;10.63;5.45;;;6.10;93.20;;;;;;5009478;28;20438;-88
2021/01/23 10:42:11;;;;;;;9.20;4.85;;;6.10;92.70;;;;;;5016342;28;20095;-88
2021/01/23 10:44:39;;;;;;;10.68;5.30;;;6.20;92.70;;;;;;5009062;28;20036;-88
2021/01/23 10:47:09;;;;;;;9.40;4.70;;;6.20;92.50;;;;;;4987012;28;20034;-89
2021/01/23 10:49:35;;;;;;;17.75;5.47;;;6.30;92.60;;;;;;5029363;28;20377;-88
2021/01/23 10:52:01;;;;;;;10.43;4.93;;;6.30;92.10;;;;;;5004008;28;20033;-88
2021/01/23 10:54:27;;;;;;;9.80;4.65;;;6.40;92.50;;;;;;5024040;28;20115;-89
2021/01/23 10:56:54;;;;;;;8.07;4.00;;;6.50;91.90;;;;;;5020753;28;20489;-88
2021/01/23 10:59:22;;;;;;;14.18;4.65;;;6.50;91.70;;;;;;5022790;28;20017;-89
2021/01/23 11:01:48;;;;;;;8.50;4.47;;;6.60;91.90;;;;;;5024096;28;20036;-89
2021/01/23 11:04:15;;;;;;;8.63;4.38;;;6.60;90.90;;;;;;5011293;28;20083;-88
2021/01/23 11:06:41;;;;;;;9.25;4.25;;;6.70;91.60;;;;;;5034273;28;20026;-88
2021/01/23 11:09:07;;;;;;;8.85;4.18;;;6.70;91.10;;;;;;5004397;28;20037;-88
2021/01/23 11:11:34;;;;;;;10.80;4.90;;;6.70;90.90;;;;;;5030975;28;20037;-89
2021/01/23 11:13:59;;;;;;;12.48;4.10;;;6.80;91.20;;;;;;5027727;28;20120;-89
2021/01/23 11:16:25;;;;;;;6.25;3.65;;;6.80;90.70;;;;;;5026342;28;20104;-89
2021/01/23 11:18:51;;;;;;;7.53;3.50;;;6.90;91.30;;;;;;5013525;28;20022;-88
2021/01/23 11:21:18;;;;;;;8.27;4.25;;;6.90;91.50;;;;;;5031971;28;20457;-87
2021/01/23 11:23:43;;;;;;;8.15;3.95;;;7.00;91.60;;;;;;5001935;28;20477;-88
2021/01/23 11:26:12;;;;;;;7.97;3.65;;;7.10;91.90;;;;;;5015908;28;20021;-88
2021/01/23 11:28:39;;;;;;;7.07;3.58;;;7.20;92.00;;;;;;4999974;28;20466;-87
2021/01/23 11:31:05;;;;;;;7.65;3.83;;;7.30;91.60;;;;;;5003104;28;20033;-90
2021/01/23 11:33:31;;;;;;;8.82;3.53;;;7.30;91.40;;;;;;5015308;28;20096;-89
2021/01/23 11:35:57;;;;;;;5.93;3.28;;;7.40;91.60;;;;;;5001165;28;20033;-89
2021/01/23 11:38:23;;;;;;;9.02;3.80;;;7.40;90.30;;;;;;5018638;28;20029;-91
2021/01/23 11:40:48;;;;;;;12.90;4.28;;;7.40;89.70;;;;;;5004973;28;20116;-89
2021/01/23 11:43:14;;;;;;;9.05;3.97;;;7.40;89.20;;;;;;5030467;28;20151;-91
2021/01/23 11:45:41;;;;;;;12.32;4.40;;;7.30;89.10;;;;;;5032877;28;20836;-88
2021/01/23 11:48:08;;;;;;;9.05;4.15;;;7.30;89.20;;;;;;5015154;28;20111;-88
2021/01/23 11:50:35;;;;;;;6.50;3.85;;;7.30;88.80;;;;;;5033274;28;20030;-87
2021/01/23 11:53:03;;;;;;;7.60;3.95;;;7.30;87.80;;;;;;5013941;28;20025;-86
2021/01/23 11:55:32;;;;;;;8.60;3.42;;;7.30;87.30;;;;;;5021284;28;20025;-89
2021/01/23 11:57:58;;;;;;;7.43;3.40;;;7.30;86.30;;;;;;5017344;28;20036;-89
2021/01/23 12:00:24;;;;;;;8.77;3.70;;;7.30;87.60;;;;;;5012683;28;20044;-87
2021/01/23 12:02:50;;;;;;;8.20;3.67;;;7.40;88.40;;;;;;5032278;28;20053;-89
2021/01/23 12:05:28;;;;;;;10.57;3.80;;;7.40;88.30;;;;;;5000644;28;20045;-90
2021/01/23 12:07:54;;;;;;;11.88;4.55;;;7.50;88.00;;;;;;5014665;28;20057;-88
2021/01/23 12:10:22;;;;;;;7.90;3.60;;;7.40;86.80;;;;;;5017335;28;20122;-89
2021/01/23 12:13:33;;;;;;;;;;;;;;;;;;;;;
2021/01/23 12:16:04;;;;;;;8.45;3.67;;;7.40;86.00;;;;;;5021655;28;20026;-91
2021/01/23 12:18:34;;;;;;;6.85;3.55;;;7.40;87.00;;;;;;5016471;28;20056;-87
2021/01/23 12:21:07;;;;;;;10.80;3.80;;;7.30;85.80;;;;;;5019812;28;20037;-91
2021/01/23 12:24:00;;;;;;;7.93;4.35;;;7.30;87.00;;;;;;5019793;28;20042;-91
2021/01/23 12:26:27;;;;;;;7.57;3.60;;;7.30;87.40;;;;;;5036576;28;20052;-91
2021/01/23 12:31:48;;;;;;;6.32;3.60;;;7.20;86.80;;;;;;5018277;28;20056;-91
2021/01/23 12:34:20;;;;;;;8.45;4.10;;;7.20;87.60;;;;;;5039653;28;20051;-90
2021/01/23 12:36:48;;;;;;;;;;;7.20;87.60;;;;;;5023432;28;20412;-92
2021/01/23 12:39:31;;;;;;;8.98;4.00;;;7.20;88.60;;;;;;5038428;28;19991;-91
2021/01/23 12:42:10;;;;;;;;;;;;;;;;;;;;;
2021/01/23 12:45:05;;;;;;;7.38;4.55;;;7.30;88.70;;;;;;5034734;28;20024;-90
2021/01/23 12:47:47;;;;;;;;;;;;;;;;;;;;;
2021/01/23 12:51:13;;;;;;;;;;;;;;;;;;;;;
2021/01/23 12:54:10;;;;;;;10.55;4.80;;;7.20;87.50;;;;;;5034879;28;20037;-92
2021/01/23 12:56:58;;;;;;;9.77;4.13;;;7.10;87.60;;;;;;5053186;28;20091;-88
2021/01/23 12:59:29;;;;;;;11.35;4.55;;;7.10;88.30;;;;;;5040900;28;20036;-91
2021/01/23 13:02:00;;;;;;;9.07;4.60;;;7.00;87.70;;;;;;5056314;28;20053;-90